createdAt,value
2023-01-15T16:22:04.359Z,98907.39
2023-01-15T16:25:34.783Z,98899.66
2023-01-15T16:32:12.069Z,98909.31
2023-01-15T16:35:49.484Z,98930.11
2023-01-15T16:39:21.119Z,98941.99
2023-01-15T16:43:15.101Z,98956.02
2023-01-15T16:47:00.346Z,98972.71
2023-01-15T16:50:31.979Z,98990.68
2023-01-15T16:54:09.890Z,98988.63
2023-01-15T16:57:42.032Z,98996.06
2023-01-15T17:01:12.709Z,98986.27
2023-01-15T17:05:09.766Z,98985.04
2023-01-15T17:08:39.664Z,98986.52
2023-01-15T17:12:22.927Z,98995.45
2023-01-15T17:15:59.319Z,99009.55
2023-01-15T17:19:13.793Z,99017.16
2023-01-15T17:22:45.172Z,99019.56
2023-01-15T17:26:21.809Z,99021.28
2023-01-15T17:29:53.011Z,99028.58
2023-01-15T17:33:36.680Z,99026.14
2023-01-15T17:37:07.776Z,99022.79
2023-01-15T17:40:38.483Z,99018.85
2023-01-15T17:44:09.643Z,99022.33
2023-01-15T17:47:41.959Z,99019.88
2023-01-15T17:51:12.597Z,99029.48
2023-01-15T17:54:43.998Z,99038.62
2023-01-15T17:58:15.440Z,99034.39
2023-01-15T18:01:53.935Z,99020.42
2023-01-15T18:05:27.928Z,99015.64
2023-01-15T18:08:53.564Z,99011.57
2023-01-15T18:15:45.888Z,99013.16
2023-01-15T19:18:33.454Z,99067.83
2023-01-15T19:21:57.367Z,99065.52
2023-01-15T19:25:07.200Z,99066.14
2023-01-15T19:28:42.347Z,99067.64
2023-01-15T19:31:42.284Z,99067.45
2023-01-15T19:34:34.297Z,99063.75
2023-01-15T19:37:27.148Z,99067.63
2023-01-15T19:45:00.238Z,99068.33
2023-01-15T19:48:03.718Z,99071.18
2023-01-15T19:51:10.150Z,99073.71
2023-01-15T19:54:07.080Z,99078.45
2023-01-15T19:56:56.079Z,99075.45
2023-01-15T19:59:45.279Z,99072.66
2023-01-15T20:02:47.237Z,99073.23
2023-01-15T20:05:54.321Z,99075.10
2023-01-15T20:09:06.659Z,99076.90
2023-01-15T20:12:38.573Z,99076.95
2023-01-15T20:15:55.640Z,99087.31
2023-01-15T20:18:57.203Z,99084.77
2023-01-15T20:22:04.119Z,99085.65
2023-01-15T20:25:19.338Z,99086.42
2023-01-15T20:29:10.189Z,99089.02
2023-01-15T20:32:41.004Z,99089.79
2023-01-15T20:36:12.641Z,99086.70
2023-01-15T20:39:38.240Z,99086.45
2023-01-15T20:43:07.469Z,99082.59
2023-01-15T20:46:24.308Z,99082.86
2023-01-15T20:49:54.592Z,99082.25
2023-01-15T20:53:18.524Z,99082.23
2023-01-15T20:56:41.640Z,99077.56
2023-01-15T21:03:38.580Z,99077.98
2023-01-15T21:07:01.100Z,99076.08
2023-01-15T21:10:32.125Z,99079.19
2023-01-15T21:13:59.341Z,99075.88
2023-01-15T21:17:29.843Z,99082.41
2023-01-15T21:21:03.059Z,99082.27
2023-01-15T21:24:26.228Z,99080.14
2023-01-15T22:09:59.525Z,99062.27
2023-01-15T22:32:33.491Z,99057.80
2023-01-15T22:36:02.764Z,99055.10
2023-01-15T22:43:37.205Z,99053.90
2023-01-15T22:47:32.112Z,99049.95
2023-01-15T23:09:33.457Z,99024.05
2023-01-15T23:13:05.352Z,99033.23
2023-01-15T23:16:39.283Z,99022.79
2023-01-15T23:42:44.571Z,99011.67
2023-01-15T23:50:22.612Z,99009.09
2023-01-15T23:54:01.003Z,99012.45
2023-01-15T23:57:06.203Z,99013.61
